createdAt,value
2022-11-26T00:00:53.659Z,-0.32
2022-11-26T00:03:31.000Z,-0.31
2022-11-26T00:05:58.654Z,-0.18
2022-11-26T00:08:33.912Z,-0.20
2022-11-26T00:11:02.665Z,-0.24
2022-11-26T00:13:31.556Z,-0.16
2022-11-26T00:15:59.085Z,-0.10
2022-11-26T00:18:29.106Z,0.02
2022-11-26T00:21:00.701Z,0.17
2022-11-26T00:23:28.918Z,0.01
2022-11-26T00:26:02.208Z,0.11
2022-11-26T00:28:33.348Z,-0.02
2022-11-26T00:31:03.472Z,0.27
2022-11-26T00:33:31.218Z,0.31
2022-11-26T00:36:25.361Z,0.08
2022-11-26T00:39:01.071Z,0.15
2022-11-26T00:41:35.089Z,0.09
2022-11-26T00:44:02.393Z,-0.03
2022-11-26T00:46:29.972Z,-0.03
2022-11-26T00:48:57.123Z,-0.07
2022-11-26T00:51:28.782Z,0.02
2022-11-26T00:54:00.338Z,0.04
2022-11-26T00:56:28.299Z,0.04
2022-11-26T00:58:55.443Z,0.22
2022-11-26T01:01:30.200Z,0.18
2022-11-26T01:03:58.473Z,0.16
2022-11-26T01:06:36.889Z,0.38
2022-11-26T01:09:05.539Z,0.28
2022-11-26T01:11:33.480Z,0.21
2022-11-26T01:14:00.725Z,0.16
2022-11-26T01:16:34.399Z,0.14
2022-11-26T01:19:02.424Z,0.27
2022-11-26T01:21:31.553Z,0.27
2022-11-26T01:23:58.701Z,0.19
2022-11-26T01:26:28.843Z,0.15
2022-11-26T01:28:56.145Z,0.19
2022-11-26T01:31:28.648Z,0.15
2022-11-26T01:33:57.025Z,-0.05
2022-11-26T01:36:30.383Z,-0.02
2022-11-26T01:39:14.705Z,-0.09
2022-11-26T01:42:21.031Z,0.00
2022-11-26T01:44:48.184Z,-0.06
2022-11-26T01:47:28.053Z,0.07
2022-11-26T01:50:32.018Z,0.09
2022-11-26T01:53:07.023Z,0.11
2022-11-26T01:55:42.283Z,0.16
2022-11-26T01:58:15.133Z,0.22
2022-11-26T02:00:42.633Z,0.42
2022-11-26T02:03:10.270Z,0.60
2022-11-26T02:05:44.439Z,0.74
2022-11-26T02:08:12.920Z,0.64
2022-11-26T02:10:40.105Z,0.62
2022-11-26T02:13:07.713Z,0.54
2022-11-26T02:15:45.706Z,0.75
2022-11-26T02:18:13.393Z,0.77
2022-11-26T02:20:51.187Z,1.01
2022-11-26T02:23:51.721Z,0.78
2022-11-26T02:26:39.857Z,1.02
2022-11-26T02:29:07.204Z,0.95
2022-11-26T02:31:46.657Z,0.98
2022-11-26T02:34:37.174Z,0.95
2022-11-26T02:37:12.610Z,0.89
2022-11-26T02:39:40.022Z,0.65
2022-11-26T02:42:28.943Z,0.60
2022-11-26T02:45:02.272Z,0.81
2022-11-26T02:47:30.143Z,0.70
2022-11-26T02:50:01.951Z,0.97
2022-11-26T02:52:30.308Z,0.95
2022-11-26T02:54:58.637Z,0.76
2022-11-26T02:57:30.611Z,0.62
2022-11-26T02:59:58.463Z,0.56
2022-11-26T03:02:41.223Z,0.44
2022-11-26T03:05:11.604Z,0.40
2022-11-26T03:07:39.505Z,0.33
2022-11-26T03:10:07.745Z,0.34
2022-11-26T03:12:34.872Z,0.34
2022-11-26T03:15:02.296Z,0.29
2022-11-26T03:17:29.464Z,0.31
2022-11-26T03:19:57.008Z,0.36
2022-11-26T03:22:24.280Z,0.41
2022-11-26T03:24:51.723Z,0.31
2022-11-26T03:27:18.941Z,0.30
2022-11-26T03:29:46.403Z,0.29
2022-11-26T03:32:13.530Z,0.27
2022-11-26T03:34:41.074Z,0.28
2022-11-26T03:37:08.763Z,0.21
2022-11-26T03:39:36.183Z,0.14
2022-11-26T03:42:03.593Z,0.22
2022-11-26T03:44:31.171Z,0.25
2022-11-26T03:46:58.370Z,0.22
2022-11-26T03:49:25.850Z,0.28
2022-11-26T03:51:53.030Z,0.28
2022-11-26T03:54:20.471Z,0.28
2022-11-26T03:56:47.623Z,0.24
2022-11-26T03:59:15.063Z,0.61
2022-11-26T04:01:42.291Z,0.79
2022-11-26T04:04:09.954Z,0.67
2022-11-26T04:06:37.216Z,0.73
2022-11-26T04:09:05.332Z,0.92
2022-11-26T04:11:32.697Z,0.89
2022-11-26T04:14:00.176Z,0.97
2022-11-26T04:16:27.454Z,0.95
2022-11-26T04:18:55.091Z,1.20
2022-11-26T04:21:22.394Z,1.16
2022-11-26T04:23:49.956Z,1.25
2022-11-26T04:26:17.229Z,1.03
2022-11-26T04:28:46.450Z,1.13
2022-11-26T04:31:13.795Z,1.18
2022-11-26T04:33:42.351Z,1.11
2022-11-26T04:36:10.170Z,1.01
2022-11-26T04:38:38.043Z,1.10
2022-11-26T04:41:05.401Z,1.01
2022-11-26T04:43:32.886Z,0.98
2022-11-26T04:46:00.346Z,1.17
2022-11-26T04:48:28.019Z,1.11
2022-11-26T04:50:55.163Z,1.09
2022-11-26T04:53:23.091Z,1.20
2022-11-26T04:55:51.410Z,1.31
2022-11-26T04:58:20.475Z,1.28
2022-11-26T05:00:50.969Z,1.22
2022-11-26T05:03:19.522Z,1.24
2022-11-26T05:05:47.261Z,1.23
2022-11-26T05:08:14.954Z,1.11
2022-11-26T05:10:43.119Z,1.07
2022-11-26T05:13:10.731Z,1.06
2022-11-26T05:15:38.141Z,1.14
2022-11-26T05:18:05.698Z,1.37
2022-11-26T05:20:32.851Z,1.24
2022-11-26T05:23:00.350Z,1.16
2022-11-26T05:25:27.601Z,1.33
2022-11-26T05:27:55.030Z,1.22
2022-11-26T05:30:22.210Z,1.31
2022-11-26T05:32:49.655Z,1.24
2022-11-26T05:35:16.937Z,1.26
2022-11-26T05:37:44.364Z,1.20
2022-11-26T05:40:11.900Z,1.35
2022-11-26T05:42:39.402Z,1.28
2022-11-26T05:45:07.371Z,1.10
2022-11-26T05:47:34.843Z,1.17
2022-11-26T05:50:02.416Z,1.03
2022-11-26T05:52:29.868Z,1.13
2022-11-26T05:54:57.020Z,1.01
2022-11-26T05:57:24.468Z,0.87
2022-11-26T05:59:51.840Z,0.90
2022-11-26T06:02:19.439Z,1.00
2022-11-26T06:04:46.746Z,1.02
2022-11-26T06:07:14.316Z,0.75
2022-11-26T06:09:41.706Z,0.89
2022-11-26T06:12:09.296Z,1.10
2022-11-26T06:14:41.619Z,1.21
2022-11-26T06:17:11.121Z,1.26
2022-11-26T06:19:38.637Z,1.48
2022-11-26T06:22:06.226Z,1.55
2022-11-26T06:24:33.531Z,1.51
2022-11-26T06:27:00.991Z,1.53
2022-11-26T06:29:28.507Z,1.22
2022-11-26T06:31:55.966Z,1.12
2022-11-26T06:34:23.200Z,1.28
2022-11-26T06:36:50.786Z,1.40
2022-11-26T06:39:17.944Z,1.32
2022-11-26T06:41:45.349Z,1.37
2022-11-26T06:44:12.483Z,1.54
2022-11-26T06:46:39.999Z,1.51
2022-11-26T06:49:07.447Z,1.46
2022-11-26T06:51:34.938Z,1.44
2022-11-26T06:54:02.143Z,1.34
2022-11-26T06:56:29.637Z,1.63
2022-11-26T06:58:57.182Z,1.52
2022-11-26T07:01:26.514Z,1.47
2022-11-26T07:03:54.920Z,1.50
2022-11-26T07:06:27.801Z,1.49
2022-11-26T07:08:57.000Z,1.20
2022-11-26T07:11:26.476Z,1.03
2022-11-26T07:13:54.140Z,1.08
2022-11-26T07:16:22.067Z,1.14
2022-11-26T07:18:51.015Z,1.41
2022-11-26T07:21:20.103Z,1.20
2022-11-26T07:23:47.978Z,1.38
2022-11-26T07:26:16.803Z,1.47
2022-11-26T07:28:44.223Z,1.62
2022-11-26T07:31:16.903Z,1.44
2022-11-26T07:33:45.703Z,1.21
2022-11-26T07:36:22.364Z,1.10
2022-11-26T07:38:49.986Z,1.01
2022-11-26T07:41:19.507Z,0.98
2022-11-26T07:43:47.358Z,0.98
2022-11-26T07:46:18.000Z,0.98
2022-11-26T07:48:45.845Z,1.01
2022-11-26T07:51:24.793Z,1.01
2022-11-26T07:53:53.101Z,1.02
2022-11-26T07:56:21.088Z,1.10
2022-11-26T07:58:48.819Z,1.17
2022-11-26T08:01:19.770Z,1.20
2022-11-26T08:03:50.305Z,1.28
2022-11-26T08:06:20.841Z,1.30
2022-11-26T08:08:48.590Z,1.49
2022-11-26T08:11:18.455Z,1.46
2022-11-26T08:13:46.753Z,1.52
2022-11-26T08:16:15.489Z,1.60
2022-11-26T08:18:42.720Z,1.64
2022-11-26T08:21:10.755Z,1.71
2022-11-26T08:23:38.174Z,1.89
2022-11-26T08:26:33.608Z,1.85
2022-11-26T08:28:58.686Z,2.06
2022-11-26T08:31:28.100Z,2.13
2022-11-26T08:34:03.021Z,1.92
2022-11-26T08:36:31.646Z,1.94
2022-11-26T08:39:00.362Z,1.86
2022-11-26T08:41:27.935Z,2.02
2022-11-26T08:44:10.392Z,2.08
2022-11-26T08:46:39.512Z,2.32
2022-11-26T08:49:08.247Z,2.28
2022-11-26T08:51:35.751Z,2.18
2022-11-26T08:54:03.017Z,2.44
2022-11-26T08:56:30.535Z,2.52
2022-11-26T08:58:58.172Z,2.52
2022-11-26T09:01:27.969Z,2.46
2022-11-26T09:03:57.669Z,2.34
2022-11-26T09:06:27.912Z,2.45
2022-11-26T09:09:13.329Z,2.39
2022-11-26T09:11:58.651Z,2.27
2022-11-26T09:14:28.555Z,2.17
2022-11-26T09:16:57.470Z,2.25
2022-11-26T09:19:25.609Z,2.44
2022-11-26T09:21:53.087Z,2.55
2022-11-26T09:24:21.428Z,2.53
2022-11-26T09:26:49.825Z,2.71
2022-11-26T09:29:20.089Z,2.79
2022-11-26T09:32:22.096Z,2.82
2022-11-26T09:34:37.402Z,2.75
2022-11-26T09:37:05.076Z,2.66
2022-11-26T09:39:32.225Z,2.77
2022-11-26T09:42:12.196Z,3.05
2022-11-26T09:44:45.280Z,3.01
2022-11-26T09:47:17.640Z,2.95
2022-11-26T09:50:03.258Z,2.75
2022-11-26T09:52:37.030Z,2.84
2022-11-26T09:55:20.491Z,3.06
2022-11-26T09:58:15.545Z,2.85
2022-11-26T10:00:46.031Z,3.23
2022-11-26T10:03:18.588Z,3.31
2022-11-26T10:06:00.824Z,3.51
2022-11-26T10:09:03.067Z,3.37
2022-11-26T10:11:45.669Z,3.59
2022-11-26T10:14:56.440Z,3.74
2022-11-26T10:17:23.567Z,3.66
2022-11-26T10:19:51.008Z,3.55
2022-11-26T10:22:26.455Z,3.48
2022-11-26T10:24:57.536Z,3.01
2022-11-26T10:27:28.481Z,3.09
2022-11-26T10:30:03.359Z,3.02
2022-11-26T10:32:39.828Z,3.21
2022-11-26T10:35:07.555Z,3.37
2022-11-26T10:37:34.747Z,3.50
2022-11-26T10:40:24.888Z,3.61
2022-11-26T10:43:20.020Z,3.66
2022-11-26T10:45:58.281Z,3.71
2022-11-26T10:48:29.303Z,4.01
2022-11-26T10:51:00.234Z,4.28
2022-11-26T10:53:29.898Z,4.42
2022-11-26T10:56:00.676Z,4.36
2022-11-26T10:58:33.249Z,4.12
2022-11-26T11:01:03.763Z,3.98
2022-11-26T11:04:06.661Z,3.88
2022-11-26T11:06:37.530Z,4.01
2022-11-26T11:09:24.903Z,4.09
2022-11-26T11:12:22.721Z,4.27
2022-11-26T11:14:54.522Z,4.16
2022-11-26T11:17:34.560Z,3.78
2022-11-26T11:20:25.022Z,3.80
2022-11-26T11:23:31.088Z,3.89
2022-11-26T11:26:24.790Z,3.86
2022-11-26T11:28:53.777Z,3.89
2022-11-26T11:31:25.114Z,3.93
2022-11-26T11:34:20.408Z,3.72
2022-11-26T11:37:06.066Z,3.39
2022-11-26T11:39:35.410Z,3.48
2022-11-26T11:42:06.886Z,3.50
2022-11-26T11:44:43.365Z,3.43
2022-11-26T11:47:29.073Z,2.96
2022-11-26T11:50:36.226Z,3.25
2022-11-26T11:53:18.532Z,3.02
2022-11-26T11:56:06.152Z,2.86
2022-11-26T11:59:08.626Z,2.94
2022-11-26T12:01:57.213Z,2.96
2022-11-26T12:04:51.428Z,2.94
2022-11-26T12:07:28.752Z,2.90
2022-11-26T12:10:08.846Z,2.81
2022-11-26T12:12:49.897Z,3.02
2022-11-26T12:15:26.781Z,3.32
2022-11-26T12:18:06.663Z,3.34
2022-11-26T12:20:39.540Z,3.14
2022-11-26T12:23:37.178Z,3.37
2022-11-26T12:26:15.819Z,3.22
2022-11-26T12:29:00.393Z,3.11
2022-11-26T12:31:36.858Z,3.36
2022-11-26T12:34:25.999Z,3.36
2022-11-26T12:37:19.820Z,3.30
2022-11-26T12:39:59.850Z,3.36
2022-11-26T12:42:42.313Z,3.44
2022-11-26T12:45:42.769Z,3.53
2022-11-26T12:48:28.191Z,3.57
2022-11-26T12:51:03.198Z,3.66
2022-11-26T12:53:52.468Z,3.71
2022-11-26T12:56:31.328Z,3.71
2022-11-26T12:59:23.519Z,3.54
2022-11-26T13:01:51.348Z,3.67
2022-11-26T13:04:49.285Z,3.46
2022-11-26T13:07:34.831Z,3.34
2022-11-26T13:10:01.984Z,3.42
2022-11-26T13:12:35.487Z,3.22
2022-11-26T13:15:31.928Z,3.29
2022-11-26T13:18:01.016Z,3.21
2022-11-26T13:20:46.382Z,3.17
2022-11-26T13:23:17.279Z,3.18
2022-11-26T13:26:24.220Z,3.17
2022-11-26T13:28:51.700Z,3.29
2022-11-26T13:31:47.135Z,3.33
2022-11-26T13:34:46.729Z,3.20
2022-11-26T13:37:40.609Z,3.14
2022-11-26T13:40:14.466Z,3.04
2022-11-26T13:43:03.030Z,2.89
2022-11-26T13:46:05.940Z,3.03
2022-11-26T13:48:51.936Z,2.78
2022-11-26T13:51:27.960Z,2.58
2022-11-26T13:54:11.849Z,2.78
2022-11-26T13:56:41.922Z,2.79
2022-11-26T13:59:23.956Z,2.74
2022-11-26T14:01:54.529Z,2.77
2022-11-26T14:04:24.911Z,2.74
2022-11-26T14:07:04.635Z,2.68
2022-11-26T14:09:47.132Z,2.66
2022-11-26T14:12:16.242Z,2.57
2022-11-26T14:14:46.230Z,2.67
2022-11-26T14:17:17.791Z,2.66
2022-11-26T14:19:44.946Z,2.59
2022-11-26T14:22:21.459Z,2.57
2022-11-26T14:24:48.706Z,2.52
2022-11-26T14:27:37.435Z,2.45
2022-11-26T14:30:07.557Z,2.68
2022-11-26T14:32:39.848Z,2.63
2022-11-26T14:35:30.666Z,2.51
2022-11-26T14:38:03.485Z,2.47
2022-11-26T14:40:33.556Z,2.45
2022-11-26T14:43:17.841Z,2.41
2022-11-26T14:45:48.569Z,2.28
2022-11-26T14:48:25.974Z,2.19
2022-11-26T14:50:54.815Z,2.16
2022-11-26T14:53:25.527Z,2.13
2022-11-26T14:55:53.514Z,2.10
2022-11-26T14:58:35.757Z,2.02
2022-11-26T15:01:18.733Z,2.12
2022-11-26T15:03:58.127Z,1.95
2022-11-26T15:06:27.574Z,1.99
2022-11-26T15:09:15.367Z,1.89
2022-11-26T15:12:08.158Z,1.82
2022-11-26T15:14:46.850Z,1.84
2022-11-26T15:17:18.250Z,1.90
2022-11-26T15:19:47.063Z,1.83
2022-11-26T15:22:39.201Z,1.70
2022-11-26T15:25:17.867Z,1.69
2022-11-26T15:27:54.284Z,1.62
2022-11-26T15:30:30.974Z,1.54
2022-11-26T15:33:11.003Z,1.46
2022-11-26T15:35:40.115Z,1.50
2022-11-26T15:38:18.224Z,1.55
2022-11-26T15:40:59.281Z,1.50
2022-11-26T15:43:42.436Z,1.52
2022-11-26T15:46:16.174Z,1.75
2022-11-26T15:48:52.767Z,1.68
2022-11-26T15:51:41.734Z,1.67
2022-11-26T15:55:10.861Z,1.64
2022-11-26T15:57:36.674Z,1.67
2022-11-26T16:00:20.093Z,2.06
2022-11-26T16:02:47.668Z,1.86
2022-11-26T16:05:38.895Z,1.90
2022-11-26T16:08:25.476Z,2.01
2022-11-26T16:11:16.924Z,1.94
2022-11-26T16:13:44.376Z,2.00
2022-11-26T16:16:21.569Z,1.93
2022-11-26T16:19:00.536Z,1.87
2022-11-26T16:21:33.370Z,1.89
2022-11-26T16:24:07.104Z,1.93
2022-11-26T16:26:57.443Z,1.93
2022-11-26T16:29:26.174Z,1.88
2022-11-26T16:31:53.436Z,1.86
2022-11-26T16:34:21.118Z,1.80
2022-11-26T16:36:48.707Z,1.87
2022-11-26T16:39:17.314Z,1.84
2022-11-26T16:41:44.469Z,1.74
2022-11-26T16:44:11.921Z,1.72
2022-11-26T16:46:41.082Z,1.70
2022-11-26T16:49:10.883Z,1.62
2022-11-26T16:51:38.017Z,1.43
2022-11-26T16:54:05.491Z,1.30
2022-11-26T16:56:37.520Z,1.28
2022-11-26T16:59:19.230Z,1.32
2022-11-26T17:01:46.492Z,1.21
2022-11-26T17:04:14.794Z,1.30
2022-11-26T17:06:42.076Z,1.26
2022-11-26T17:09:17.709Z,1.24
2022-11-26T17:11:45.784Z,1.30
2022-11-26T17:14:13.292Z,1.41
2022-11-26T17:16:41.123Z,1.41
2022-11-26T17:19:13.885Z,1.41
2022-11-26T17:21:41.125Z,1.41
2022-11-26T17:24:08.671Z,1.43
2022-11-26T17:26:36.053Z,1.46
2022-11-26T17:29:03.963Z,1.45
2022-11-26T17:31:31.231Z,1.58
2022-11-26T17:33:58.864Z,1.51
2022-11-26T17:36:26.145Z,1.62
2022-11-26T17:38:53.790Z,1.60
2022-11-26T17:41:20.954Z,1.54
2022-11-26T17:43:48.390Z,1.61
2022-11-26T17:46:21.451Z,1.72
2022-11-26T17:48:51.472Z,1.72
2022-11-26T17:51:21.549Z,1.64
2022-11-26T17:53:49.146Z,1.98
2022-11-26T17:56:22.268Z,1.86
2022-11-26T17:58:50.417Z,1.77
2022-11-26T18:01:18.110Z,1.68
2022-11-26T18:03:46.706Z,1.64
2022-11-26T18:06:20.133Z,1.70
2022-11-26T18:08:47.671Z,1.71
2022-11-26T18:11:16.289Z,1.78
2022-11-26T18:13:44.184Z,1.79
2022-11-26T18:16:11.324Z,1.76
2022-11-26T18:18:38.781Z,1.78
2022-11-26T18:21:06.561Z,1.73
2022-11-26T18:23:34.182Z,1.76
2022-11-26T18:26:01.401Z,1.79
2022-11-26T18:28:29.815Z,1.96
2022-11-26T18:30:58.655Z,1.94
2022-11-26T18:33:26.199Z,1.89
2022-11-26T18:35:53.351Z,1.97
2022-11-26T18:38:20.830Z,1.90
2022-11-26T18:40:58.691Z,1.92
2022-11-26T18:43:26.609Z,1.99
2022-11-26T18:45:53.858Z,1.93
2022-11-26T18:48:21.284Z,1.93
2022-11-26T18:50:58.722Z,2.19
2022-11-26T18:53:26.639Z,2.22
2022-11-26T18:55:54.476Z,2.16
2022-11-26T18:58:23.237Z,2.13
2022-11-26T19:00:52.240Z,2.20
2022-11-26T19:03:19.795Z,2.17
2022-11-26T19:05:51.702Z,2.08
2022-11-26T19:08:20.507Z,2.15
2022-11-26T19:10:48.117Z,2.03
2022-11-26T19:13:16.280Z,2.03
2022-11-26T19:15:44.491Z,1.94
2022-11-26T19:18:16.059Z,1.96
2022-11-26T19:20:53.019Z,1.92
2022-11-26T19:23:24.463Z,2.14
2022-11-26T19:25:52.171Z,2.01
2022-11-26T19:28:19.943Z,1.84
2022-11-26T19:31:03.438Z,1.77
2022-11-26T19:33:32.193Z,1.95
2022-11-26T19:36:03.818Z,1.78
2022-11-26T19:38:31.215Z,1.70
2022-11-26T19:41:00.120Z,1.59
2022-11-26T19:43:30.539Z,1.50
2022-11-26T19:46:03.635Z,1.42
2022-11-26T19:48:33.071Z,1.38
2022-11-26T19:51:00.444Z,1.47
2022-11-26T19:53:28.742Z,1.50
2022-11-26T19:56:08.265Z,1.50
2022-11-26T19:58:36.723Z,1.55
2022-11-26T20:01:09.175Z,1.28
2022-11-26T20:03:37.702Z,1.31
2022-11-26T20:06:14.871Z,1.46
2022-11-26T20:08:43.150Z,1.47
2022-11-26T20:11:11.121Z,1.76
2022-11-26T20:13:40.880Z,1.58
2022-11-26T20:16:10.908Z,1.68
2022-11-26T20:18:40.406Z,1.60
2022-11-26T20:21:10.752Z,1.62
2022-11-26T20:23:38.954Z,1.73
2022-11-26T20:26:14.647Z,1.79
2022-11-26T20:28:42.765Z,1.84
2022-11-26T20:31:10.575Z,1.85
2022-11-26T20:33:38.481Z,1.82
2022-11-26T20:36:11.109Z,1.76
2022-11-26T20:38:40.190Z,1.89
2022-11-26T20:41:15.676Z,1.86
2022-11-26T20:43:43.514Z,1.87
2022-11-26T20:46:12.600Z,2.09
2022-11-26T20:48:42.174Z,1.92
2022-11-26T20:51:12.457Z,1.97
2022-11-26T20:53:41.653Z,1.89
2022-11-26T20:56:09.206Z,2.16
2022-11-26T20:58:36.755Z,2.09
2022-11-26T21:01:04.079Z,2.20
2022-11-26T21:03:32.330Z,2.24
2022-11-26T21:06:03.693Z,2.30
2022-11-26T21:08:31.236Z,2.27
2022-11-26T21:11:03.968Z,2.29
2022-11-26T21:13:31.759Z,2.10
2022-11-26T21:16:02.328Z,2.06
2022-11-26T21:18:30.424Z,2.17
2022-11-26T21:20:58.329Z,2.13
2022-11-26T21:23:26.937Z,2.05
2022-11-26T21:25:54.563Z,2.10
2022-11-26T21:28:22.143Z,2.12
2022-11-26T21:30:49.453Z,2.56
2022-11-26T21:33:17.012Z,2.53
2022-11-26T21:35:44.144Z,2.69
2022-11-26T21:38:11.654Z,2.55
2022-11-26T21:40:38.931Z,2.60
2022-11-26T21:43:06.568Z,2.46
2022-11-26T21:45:33.866Z,2.39
2022-11-26T21:48:01.389Z,2.31
2022-11-26T21:50:28.523Z,2.21
2022-11-26T21:52:56.027Z,2.13
2022-11-26T21:55:23.241Z,2.23
2022-11-26T21:57:50.745Z,2.28
2022-11-26T22:00:18.652Z,2.28
2022-11-26T22:02:46.153Z,2.31
2022-11-26T22:05:13.505Z,2.34
2022-11-26T22:07:41.011Z,2.25
2022-11-26T22:10:08.986Z,2.30
2022-11-26T22:12:36.450Z,2.52
2022-11-26T22:15:03.907Z,2.56
2022-11-26T22:17:31.338Z,2.53
2022-11-26T22:19:58.516Z,2.60
2022-11-26T22:22:25.991Z,2.52
2022-11-26T22:24:53.219Z,2.64
2022-11-26T22:27:21.262Z,2.82
2022-11-26T22:29:48.571Z,2.97
2022-11-26T22:32:16.150Z,2.78
2022-11-26T22:34:43.312Z,2.95
2022-11-26T22:37:10.762Z,2.82
2022-11-26T22:39:38.268Z,2.74
2022-11-26T22:42:06.046Z,2.62
2022-11-26T22:44:34.122Z,2.63
2022-11-26T22:47:01.831Z,2.66
2022-11-26T22:49:29.054Z,2.51
2022-11-26T22:51:56.536Z,2.42
2022-11-26T22:54:24.136Z,2.27
2022-11-26T22:56:51.592Z,2.37
2022-11-26T22:59:18.808Z,2.34
2022-11-26T23:01:46.288Z,2.13
2022-11-26T23:04:13.552Z,2.13
2022-11-26T23:06:41.055Z,2.34
2022-11-26T23:09:09.731Z,2.25
2022-11-26T23:11:40.518Z,2.32
2022-11-26T23:14:09.695Z,2.36
2022-11-26T23:16:40.018Z,2.32
2022-11-26T23:19:07.347Z,2.28
2022-11-26T23:21:40.110Z,2.26
2022-11-26T23:24:07.938Z,2.44
2022-11-26T23:26:37.282Z,2.70
2022-11-26T23:29:05.642Z,2.89
2022-11-26T23:31:36.395Z,3.03
2022-11-26T23:34:04.935Z,3.23
2022-11-26T23:36:33.357Z,3.14
2022-11-26T23:39:02.098Z,3.00
2022-11-26T23:41:29.904Z,3.01
2022-11-26T23:43:57.046Z,3.11
2022-11-26T23:46:31.152Z,3.18
2022-11-26T23:48:58.788Z,2.95
2022-11-26T23:51:32.028Z,2.92
2022-11-26T23:53:59.259Z,2.79
2022-11-26T23:56:32.683Z,2.79
2022-11-26T23:59:02.701Z,2.68
